createdAt,value
2022-11-25T00:01:12.765Z,4.69
2022-11-25T00:03:41.324Z,4.64
2022-11-25T00:06:10.613Z,4.64
2022-11-25T00:08:37.984Z,4.59
2022-11-25T00:11:07.019Z,4.59
2022-11-25T00:13:34.836Z,4.60
2022-11-25T00:16:07.800Z,4.57
2022-11-25T00:18:35.807Z,4.56
2022-11-25T00:21:10.938Z,4.54
2022-11-25T00:23:38.675Z,4.54
2022-11-25T00:26:09.880Z,4.55
2022-11-25T00:28:37.650Z,4.56
2022-11-25T00:31:09.734Z,4.52
2022-11-25T00:33:37.484Z,4.45
2022-11-25T00:36:06.613Z,4.46
2022-11-25T00:38:34.307Z,4.49
2022-11-25T00:41:19.883Z,4.54
2022-11-25T00:44:05.572Z,4.63
2022-11-25T00:46:33.562Z,4.60
2022-11-25T00:49:00.498Z,4.56
2022-11-25T00:51:27.413Z,4.56
2022-11-25T00:53:58.890Z,4.47
2022-11-25T00:56:26.709Z,4.52
2022-11-25T00:58:54.439Z,4.51
2022-11-25T01:01:22.555Z,4.55
2022-11-25T01:03:51.386Z,4.59
2022-11-25T01:06:19.318Z,4.54
2022-11-25T01:08:46.556Z,4.63
2022-11-25T01:11:17.165Z,4.68
2022-11-25T01:13:44.754Z,4.69
2022-11-25T01:16:15.846Z,4.65
2022-11-25T01:18:43.805Z,4.57
2022-11-25T01:21:14.182Z,4.46
2022-11-25T01:23:42.543Z,4.47
2022-11-25T01:26:12.942Z,4.45
2022-11-25T01:28:40.682Z,4.42
2022-11-25T01:31:09.132Z,4.42
2022-11-25T01:33:37.263Z,4.45
2022-11-25T01:36:10.118Z,4.45
2022-11-25T01:38:37.483Z,4.47
2022-11-25T01:41:06.647Z,4.46
2022-11-25T01:43:34.198Z,4.46
2022-11-25T01:46:24.804Z,4.49
2022-11-25T01:48:59.992Z,4.50
2022-11-25T01:51:34.502Z,4.49
2022-11-25T01:54:04.055Z,4.46
2022-11-25T01:56:38.122Z,4.43
2022-11-25T01:59:05.715Z,4.38
2022-11-25T02:01:35.980Z,4.46
2022-11-25T02:04:04.607Z,4.44
2022-11-25T02:06:39.180Z,4.37
2022-11-25T02:09:08.766Z,4.28
2022-11-25T02:11:40.542Z,4.20
2022-11-25T02:14:09.725Z,3.98
2022-11-25T02:16:36.765Z,3.88
2022-11-25T02:19:04.843Z,4.02
2022-11-25T02:21:43.106Z,4.03
2022-11-25T02:24:32.695Z,4.00
2022-11-25T02:27:00.732Z,4.01
2022-11-25T02:29:29.066Z,3.96
2022-11-25T02:31:56.272Z,3.99
2022-11-25T02:34:25.023Z,4.01
2022-11-25T02:36:53.488Z,4.01
2022-11-25T02:39:21.642Z,4.00
2022-11-25T02:41:54.293Z,4.03
2022-11-25T02:44:21.243Z,4.07
2022-11-25T02:46:48.239Z,4.02
2022-11-25T02:49:15.237Z,4.02
2022-11-25T02:51:45.114Z,4.03
2022-11-25T02:54:15.727Z,4.09
2022-11-25T02:56:43.163Z,4.10
2022-11-25T02:59:11.164Z,4.14
2022-11-25T03:01:39.514Z,4.15
2022-11-25T03:04:08.924Z,4.09
2022-11-25T03:06:36.398Z,4.09
2022-11-25T03:09:03.722Z,4.08
2022-11-25T03:11:49.883Z,4.01
2022-11-25T03:14:17.642Z,3.94
2022-11-25T03:16:44.701Z,3.89
2022-11-25T03:19:11.950Z,3.97
2022-11-25T03:21:39.010Z,3.96
2022-11-25T03:24:06.925Z,4.01
2022-11-25T03:26:34.044Z,4.07
2022-11-25T03:29:01.083Z,4.13
2022-11-25T03:31:28.135Z,4.17
2022-11-25T03:33:55.975Z,4.22
2022-11-25T03:36:22.929Z,4.16
2022-11-25T03:38:50.599Z,4.14
2022-11-25T03:41:17.982Z,4.18
2022-11-25T03:43:46.197Z,4.15
2022-11-25T03:46:13.279Z,4.17
2022-11-25T03:48:40.556Z,4.13
2022-11-25T03:51:08.397Z,4.13
2022-11-25T03:53:35.868Z,4.10
2022-11-25T03:56:05.625Z,4.02
2022-11-25T03:58:32.677Z,3.97
2022-11-25T04:01:04.051Z,3.98
2022-11-25T04:03:31.259Z,4.03
2022-11-25T04:05:58.923Z,3.87
2022-11-25T04:08:26.089Z,4.11
2022-11-25T04:10:53.482Z,4.13
2022-11-25T04:13:24.387Z,4.17
2022-11-25T04:15:52.906Z,4.15
2022-11-25T04:18:21.323Z,4.07
2022-11-25T04:20:52.283Z,4.11
2022-11-25T04:23:19.325Z,4.07
2022-11-25T04:25:55.116Z,3.99
2022-11-25T04:28:27.696Z,4.00
2022-11-25T04:30:55.292Z,3.98
2022-11-25T04:33:22.646Z,3.94
2022-11-25T04:35:49.668Z,3.91
2022-11-25T04:38:17.066Z,3.92
2022-11-25T04:40:44.203Z,3.97
2022-11-25T04:43:14.138Z,4.00
2022-11-25T04:46:13.118Z,4.03
2022-11-25T04:48:36.605Z,4.09
2022-11-25T04:51:04.357Z,4.11
2022-11-25T04:53:31.803Z,4.14
2022-11-25T04:55:58.763Z,4.11
2022-11-25T04:58:44.876Z,4.06
2022-11-25T05:01:12.719Z,4.05
2022-11-25T05:03:49.665Z,4.03
2022-11-25T05:06:19.883Z,4.06
2022-11-25T05:08:51.202Z,4.07
2022-11-25T05:11:18.907Z,4.08
2022-11-25T05:13:45.962Z,4.11
2022-11-25T05:16:12.956Z,4.07
2022-11-25T05:18:40.336Z,4.09
2022-11-25T05:21:08.097Z,4.02
2022-11-25T05:23:39.403Z,3.98
2022-11-25T05:26:06.582Z,3.94
2022-11-25T05:28:38.603Z,3.92
2022-11-25T05:31:06.275Z,3.89
2022-11-25T05:33:33.323Z,3.87
2022-11-25T05:36:02.284Z,3.85
2022-11-25T05:38:36.213Z,3.85
2022-11-25T05:41:06.037Z,3.85
2022-11-25T05:43:33.990Z,3.82
2022-11-25T05:46:05.280Z,3.80
2022-11-25T05:48:34.124Z,3.80
2022-11-25T05:51:02.489Z,3.74
2022-11-25T05:53:31.566Z,3.69
2022-11-25T05:56:04.984Z,3.70
2022-11-25T05:59:05.247Z,3.79
2022-11-25T06:01:54.456Z,3.84
2022-11-25T06:04:21.624Z,3.82
2022-11-25T06:06:48.666Z,3.86
2022-11-25T06:09:15.781Z,3.93
2022-11-25T06:11:42.762Z,3.97
2022-11-25T06:14:10.165Z,4.02
2022-11-25T06:16:37.962Z,4.06
2022-11-25T06:19:20.252Z,4.06
2022-11-25T06:21:48.198Z,3.99
2022-11-25T06:24:15.958Z,4.05
2022-11-25T06:26:45.686Z,4.10
2022-11-25T06:29:12.783Z,4.09
2022-11-25T06:31:43.205Z,4.13
2022-11-25T06:34:26.806Z,4.12
2022-11-25T06:36:54.843Z,4.22
2022-11-25T06:39:21.829Z,4.27
2022-11-25T06:41:48.906Z,4.32
2022-11-25T06:44:15.963Z,4.33
2022-11-25T06:46:42.991Z,4.28
2022-11-25T06:49:10.122Z,4.27
2022-11-25T06:51:37.164Z,4.27
2022-11-25T06:54:04.365Z,4.24
2022-11-25T06:56:31.322Z,4.22
2022-11-25T06:58:58.256Z,4.24
2022-11-25T07:01:28.262Z,4.30
2022-11-25T07:04:01.577Z,4.22
2022-11-25T07:06:28.683Z,4.37
2022-11-25T07:08:56.474Z,4.46
2022-11-25T07:11:32.693Z,4.51
2022-11-25T07:14:02.923Z,4.50
2022-11-25T07:16:30.474Z,4.55
2022-11-25T07:19:02.176Z,4.59
2022-11-25T07:21:32.443Z,4.61
2022-11-25T07:24:01.568Z,4.65
2022-11-25T07:26:31.163Z,4.65
2022-11-25T07:29:00.686Z,4.62
2022-11-25T07:31:36.843Z,4.62
2022-11-25T07:34:11.973Z,4.62
2022-11-25T07:36:40.307Z,4.46
2022-11-25T07:39:11.803Z,4.68
2022-11-25T07:41:39.619Z,4.70
2022-11-25T07:44:09.221Z,4.77
2022-11-25T07:46:47.702Z,4.84
2022-11-25T07:49:17.619Z,4.89
2022-11-25T07:51:54.044Z,4.90
2022-11-25T07:54:23.010Z,4.90
2022-11-25T07:56:51.079Z,4.88
2022-11-25T07:59:20.843Z,4.86
2022-11-25T08:01:53.253Z,4.92
2022-11-25T08:04:21.517Z,4.98
2022-11-25T08:06:51.030Z,4.98
2022-11-25T08:09:23.009Z,4.97
2022-11-25T08:11:51.099Z,4.99
2022-11-25T08:14:18.299Z,5.03
2022-11-25T08:16:45.988Z,5.05
2022-11-25T08:19:16.044Z,5.00
2022-11-25T08:21:43.572Z,4.80
2022-11-25T08:24:19.885Z,4.89
2022-11-25T08:26:48.151Z,4.91
2022-11-25T08:29:17.614Z,4.92
2022-11-25T08:31:45.285Z,4.98
2022-11-25T08:34:21.884Z,5.03
2022-11-25T08:36:52.044Z,5.11
2022-11-25T08:39:51.270Z,5.19
2022-11-25T08:42:09.457Z,5.27
2022-11-25T08:44:36.693Z,5.30
2022-11-25T08:47:04.003Z,5.31
2022-11-25T08:49:34.767Z,5.35
2022-11-25T08:52:06.007Z,5.38
2022-11-25T08:54:33.007Z,5.37
2022-11-25T08:57:00.932Z,5.44
2022-11-25T08:59:27.878Z,5.35
2022-11-25T09:01:55.723Z,5.31
2022-11-25T09:04:22.923Z,5.31
2022-11-25T09:06:50.022Z,5.33
2022-11-25T09:09:17.263Z,5.31
2022-11-25T09:11:44.321Z,5.45
2022-11-25T09:14:12.409Z,5.51
2022-11-25T09:16:40.020Z,5.51
2022-11-25T09:19:07.003Z,5.41
2022-11-25T09:21:34.070Z,5.39
2022-11-25T09:24:01.083Z,5.39
2022-11-25T09:26:30.752Z,5.41
2022-11-25T09:28:57.740Z,5.43
2022-11-25T09:31:25.274Z,5.47
2022-11-25T09:33:52.624Z,5.50
2022-11-25T09:36:21.238Z,5.52
2022-11-25T09:38:48.284Z,5.41
2022-11-25T09:41:45.953Z,5.41
2022-11-25T09:44:40.609Z,5.38
2022-11-25T09:47:35.222Z,5.42
2022-11-25T09:50:15.253Z,5.47
2022-11-25T09:52:50.764Z,5.48
2022-11-25T09:55:22.183Z,5.56
2022-11-25T09:58:24.133Z,5.66
2022-11-25T10:00:53.323Z,5.73
2022-11-25T10:03:38.544Z,5.80
2022-11-25T10:06:24.176Z,5.82
2022-11-25T10:08:55.591Z,5.79
2022-11-25T10:11:34.844Z,5.73
2022-11-25T10:14:06.293Z,5.54
2022-11-25T10:16:51.788Z,5.74
2022-11-25T10:19:39.724Z,5.77
2022-11-25T10:22:26.454Z,5.79
2022-11-25T10:24:58.441Z,5.83
2022-11-25T10:27:36.508Z,5.86
2022-11-25T10:30:47.117Z,5.88
2022-11-25T10:33:21.198Z,5.96
2022-11-25T10:35:52.364Z,5.94
2022-11-25T10:38:37.587Z,5.91
2022-11-25T10:41:05.764Z,5.90
2022-11-25T10:43:33.802Z,5.99
2022-11-25T10:46:15.039Z,6.06
2022-11-25T10:49:06.609Z,6.20
2022-11-25T10:51:42.408Z,6.28
2022-11-25T10:54:16.525Z,6.36
2022-11-25T10:56:50.621Z,6.46
2022-11-25T10:59:36.203Z,6.54
2022-11-25T11:02:24.642Z,6.53
2022-11-25T11:05:10.053Z,6.48
2022-11-25T11:07:41.209Z,6.47
2022-11-25T11:10:23.880Z,6.50
2022-11-25T11:13:21.581Z,6.55
2022-11-25T11:15:48.695Z,6.59
2022-11-25T11:18:27.244Z,6.59
2022-11-25T11:20:59.638Z,6.57
2022-11-25T11:23:28.684Z,6.61
2022-11-25T11:26:15.736Z,6.68
2022-11-25T11:28:42.841Z,6.78
2022-11-25T11:31:19.796Z,6.78
2022-11-25T11:34:02.898Z,6.73
2022-11-25T11:36:49.459Z,6.81
2022-11-25T11:39:49.758Z,6.85
2022-11-25T11:42:43.722Z,6.98
2022-11-25T11:45:24.966Z,7.01
2022-11-25T11:48:20.845Z,6.96
2022-11-25T11:50:50.962Z,6.96
2022-11-25T11:53:28.370Z,6.86
2022-11-25T11:59:00.566Z,6.63
2022-11-25T12:01:55.387Z,6.64
2022-11-25T12:04:39.437Z,6.61
2022-11-25T12:07:20.914Z,6.63
2022-11-25T12:10:02.656Z,6.67
2022-11-25T12:12:59.489Z,6.76
2022-11-25T12:16:00.991Z,6.76
2022-11-25T12:18:49.882Z,6.77
2022-11-25T12:21:28.925Z,6.80
2022-11-25T12:24:04.522Z,6.80
2022-11-25T12:26:43.479Z,6.79
2022-11-25T12:29:20.464Z,6.88
2022-11-25T12:31:56.938Z,6.79
2022-11-25T12:34:36.941Z,6.94
2022-11-25T12:37:52.383Z,6.95
2022-11-25T12:40:42.843Z,6.99
2022-11-25T12:43:10.188Z,7.05
2022-11-25T12:45:37.596Z,7.09
2022-11-25T12:48:05.564Z,7.13
2022-11-25T12:51:02.213Z,7.16
2022-11-25T12:53:59.653Z,7.16
2022-11-25T12:56:55.694Z,7.15
2022-11-25T12:59:26.639Z,7.02
2022-11-25T13:02:41.696Z,6.96
2022-11-25T13:05:40.596Z,7.07
2022-11-25T13:08:14.202Z,7.18
2022-11-25T13:10:54.283Z,7.23
2022-11-25T13:14:14.146Z,7.31
2022-11-25T13:16:46.039Z,7.24
2022-11-25T13:19:16.524Z,7.32
2022-11-25T13:22:01.224Z,7.29
2022-11-25T13:24:43.069Z,7.28
2022-11-25T13:27:33.289Z,7.33
2022-11-25T13:30:01.406Z,7.35
2022-11-25T13:32:37.626Z,7.20
2022-11-25T13:35:22.875Z,7.35
2022-11-25T13:37:50.987Z,7.21
2022-11-25T13:40:23.650Z,7.26
2022-11-25T13:42:52.472Z,7.22
2022-11-25T13:45:52.348Z,7.27
2022-11-25T13:48:31.473Z,7.29
2022-11-25T13:51:23.024Z,7.24
2022-11-25T13:53:54.046Z,7.22
2022-11-25T13:56:23.936Z,7.18
2022-11-25T13:59:11.809Z,7.21
2022-11-25T14:01:41.136Z,7.20
2022-11-25T14:04:11.005Z,7.12
2022-11-25T14:07:19.998Z,7.10
2022-11-25T14:10:02.993Z,7.14
2022-11-25T14:12:39.084Z,7.13
2022-11-25T14:15:19.833Z,7.10
2022-11-25T14:18:11.590Z,6.98
2022-11-25T14:21:02.846Z,6.90
2022-11-25T14:23:53.717Z,6.86
2022-11-25T14:26:49.722Z,6.72
2022-11-25T14:29:23.839Z,6.73
2022-11-25T14:31:58.865Z,6.77
2022-11-25T14:34:43.019Z,6.78
2022-11-25T14:37:33.029Z,6.77
2022-11-25T14:40:13.495Z,6.75
2022-11-25T14:42:45.844Z,6.73
2022-11-25T14:45:23.548Z,6.69
2022-11-25T14:47:51.529Z,6.66
2022-11-25T14:50:35.299Z,6.59
2022-11-25T14:53:08.073Z,6.56
2022-11-25T14:55:36.601Z,6.55
2022-11-25T14:58:03.852Z,6.56
2022-11-25T15:00:30.834Z,6.54
2022-11-25T15:03:06.842Z,6.53
2022-11-25T15:05:39.813Z,6.51
2022-11-25T15:08:22.252Z,6.44
2022-11-25T15:10:52.234Z,6.44
2022-11-25T15:13:21.867Z,6.43
2022-11-25T15:15:50.643Z,6.42
2022-11-25T15:18:22.003Z,6.32
2022-11-25T15:20:59.937Z,6.29
2022-11-25T15:23:37.136Z,6.23
2022-11-25T15:26:05.182Z,6.20
2022-11-25T15:28:37.413Z,6.17
2022-11-25T15:31:32.261Z,6.19
2022-11-25T15:34:03.780Z,6.17
2022-11-25T15:36:31.137Z,6.20
2022-11-25T15:39:14.607Z,6.12
2022-11-25T15:41:44.123Z,6.13
2022-11-25T15:44:29.593Z,6.10
2022-11-25T15:47:01.148Z,6.10
2022-11-25T15:49:28.734Z,6.13
2022-11-25T15:52:19.789Z,6.09
2022-11-25T15:54:49.591Z,6.09
2022-11-25T15:57:30.775Z,6.06
2022-11-25T15:59:57.723Z,6.06
2022-11-25T16:02:39.234Z,6.05
2022-11-25T16:05:14.875Z,6.07
2022-11-25T16:07:51.340Z,6.05
2022-11-25T16:10:22.078Z,5.98
2022-11-25T16:13:22.004Z,6.08
2022-11-25T16:15:54.079Z,6.12
2022-11-25T16:18:40.103Z,6.13
2022-11-25T16:21:23.329Z,6.14
2022-11-25T16:24:08.112Z,6.13
2022-11-25T16:26:40.375Z,6.13
2022-11-25T16:29:42.171Z,6.05
2022-11-25T16:32:26.781Z,6.09
2022-11-25T16:34:56.958Z,6.08
2022-11-25T16:37:24.276Z,6.10
2022-11-25T16:39:51.255Z,6.09
2022-11-25T16:42:21.331Z,6.10
2022-11-25T16:44:51.483Z,6.13
2022-11-25T16:47:21.204Z,6.10
2022-11-25T16:49:48.848Z,6.12
2022-11-25T16:52:16.124Z,6.11
2022-11-25T16:54:43.368Z,6.09
2022-11-25T16:57:18.819Z,6.06
2022-11-25T16:59:50.265Z,6.01
2022-11-25T17:02:23.088Z,6.04
2022-11-25T17:04:50.138Z,6.06
2022-11-25T17:07:32.894Z,6.08
2022-11-25T17:10:00.666Z,6.09
2022-11-25T17:12:31.724Z,6.11
2022-11-25T17:15:00.479Z,6.09
2022-11-25T17:17:28.788Z,6.07
2022-11-25T17:19:55.945Z,6.09
2022-11-25T17:22:26.057Z,6.11
2022-11-25T17:24:54.679Z,6.15
2022-11-25T17:27:23.960Z,6.18
2022-11-25T17:29:52.675Z,6.22
2022-11-25T17:32:22.104Z,6.22
2022-11-25T17:34:49.414Z,6.27
2022-11-25T17:37:19.084Z,6.27
2022-11-25T17:39:46.404Z,6.22
2022-11-25T17:42:16.568Z,6.24
2022-11-25T17:44:49.824Z,6.29
2022-11-25T17:47:20.196Z,6.33
2022-11-25T17:49:47.122Z,6.33
2022-11-25T17:52:14.562Z,6.35
2022-11-25T17:54:42.220Z,6.37
2022-11-25T17:57:15.758Z,6.42
2022-11-25T17:59:43.181Z,6.38
2022-11-25T18:02:22.227Z,6.45
2022-11-25T18:04:50.743Z,6.42
2022-11-25T18:07:18.958Z,6.39
2022-11-25T18:09:46.271Z,6.32
2022-11-25T18:12:28.718Z,6.27
2022-11-25T18:14:56.526Z,6.27
2022-11-25T18:17:23.423Z,6.33
2022-11-25T18:19:54.987Z,6.35
2022-11-25T18:22:24.311Z,6.38
2022-11-25T18:24:52.594Z,6.40
2022-11-25T18:27:27.464Z,6.43
2022-11-25T18:29:57.407Z,6.44
2022-11-25T18:32:25.648Z,6.41
2022-11-25T18:34:52.816Z,6.37
2022-11-25T18:37:22.524Z,6.38
2022-11-25T18:39:49.913Z,6.30
2022-11-25T18:42:26.713Z,6.35
2022-11-25T18:44:55.569Z,6.29
2022-11-25T18:47:22.969Z,6.26
2022-11-25T18:49:55.392Z,6.24
2022-11-25T18:52:24.259Z,6.22
2022-11-25T18:54:52.102Z,6.17
2022-11-25T18:57:19.699Z,6.17
2022-11-25T19:00:10.291Z,6.20
2022-11-25T19:02:36.220Z,6.26
2022-11-25T19:05:15.094Z,6.28
2022-11-25T19:07:42.580Z,6.28
2022-11-25T19:10:13.763Z,6.29
2022-11-25T19:12:44.764Z,6.25
2022-11-25T19:15:17.507Z,6.33
2022-11-25T19:17:48.456Z,6.35
2022-11-25T19:20:18.253Z,6.28
2022-11-25T19:22:45.969Z,6.25
2022-11-25T19:25:13.648Z,6.31
2022-11-25T19:27:56.407Z,6.25
2022-11-25T19:30:26.309Z,6.28
2022-11-25T19:32:57.232Z,6.31
2022-11-25T19:35:32.651Z,6.28
2022-11-25T19:38:00.618Z,6.18
2022-11-25T19:40:33.462Z,6.16
2022-11-25T19:43:04.210Z,6.07
2022-11-25T19:45:31.963Z,6.12
2022-11-25T19:48:04.807Z,6.13
2022-11-25T19:50:34.102Z,6.11
2022-11-25T19:53:01.569Z,6.15
2022-11-25T19:55:30.871Z,6.16
2022-11-25T19:57:58.459Z,6.26
2022-11-25T20:00:26.308Z,6.31
2022-11-25T20:02:57.176Z,6.34
2022-11-25T20:05:35.060Z,6.36
2022-11-25T20:08:02.293Z,6.15
2022-11-25T20:10:32.081Z,6.32
2022-11-25T20:12:59.866Z,6.04
2022-11-25T20:15:29.688Z,6.17
2022-11-25T20:18:01.730Z,6.17
2022-11-25T20:20:33.458Z,6.22
2022-11-25T20:23:39.971Z,6.18
2022-11-25T20:26:07.213Z,6.11
2022-11-25T20:28:34.193Z,6.19
2022-11-25T20:31:01.163Z,6.16
2022-11-25T20:33:29.919Z,6.23
2022-11-25T20:36:05.569Z,6.25
2022-11-25T20:38:37.839Z,6.27
2022-11-25T20:41:06.169Z,6.27
2022-11-25T20:43:39.656Z,6.29
2022-11-25T20:46:23.169Z,6.13
2022-11-25T20:49:01.955Z,6.31
2022-11-25T20:51:29.696Z,6.29
2022-11-25T20:53:58.929Z,6.12
2022-11-25T20:56:27.726Z,6.25
2022-11-25T20:58:55.129Z,6.27
2022-11-25T21:01:22.636Z,6.30
2022-11-25T21:03:50.843Z,6.28
2022-11-25T21:06:21.687Z,6.34
2022-11-25T21:08:51.678Z,6.32
2022-11-25T21:11:21.168Z,6.37
2022-11-25T21:13:49.374Z,6.32
2022-11-25T21:16:16.698Z,6.35
2022-11-25T21:18:44.233Z,6.34
2022-11-25T21:21:30.369Z,6.42
2022-11-25T21:24:02.391Z,6.43
2022-11-25T21:26:29.815Z,6.38
2022-11-25T21:28:58.218Z,6.39
2022-11-25T21:31:26.611Z,6.34
2022-11-25T21:33:58.045Z,6.13
2022-11-25T21:36:29.863Z,5.95
2022-11-25T21:39:04.519Z,5.88
2022-11-25T21:41:31.764Z,5.92
2022-11-25T21:43:58.743Z,5.91
2022-11-25T21:46:29.134Z,5.87
2022-11-25T21:48:56.993Z,5.81
2022-11-25T21:51:26.839Z,5.75
2022-11-25T21:53:54.290Z,5.77
2022-11-25T21:56:28.358Z,5.82
2022-11-25T21:58:56.304Z,5.81
2022-11-25T22:01:24.257Z,5.86
2022-11-25T22:03:52.133Z,5.84
2022-11-25T22:06:31.079Z,5.87
2022-11-25T22:08:58.197Z,5.76
2022-11-25T22:11:31.141Z,5.85
2022-11-25T22:13:59.563Z,5.78
2022-11-25T22:16:31.020Z,5.84
2022-11-25T22:18:58.306Z,5.76
2022-11-25T22:21:25.703Z,5.73
2022-11-25T22:23:53.382Z,5.66
2022-11-25T22:26:23.287Z,5.82
2022-11-25T22:28:51.658Z,5.83
2022-11-25T22:31:20.741Z,5.85
2022-11-25T22:33:49.153Z,5.80
2022-11-25T22:36:35.508Z,5.86
2022-11-25T22:39:16.112Z,5.86
2022-11-25T22:41:55.428Z,5.88
2022-11-25T22:44:37.369Z,5.88
2022-11-25T22:47:05.608Z,5.85
2022-11-25T22:49:47.641Z,5.89
2022-11-25T22:52:24.171Z,5.86
2022-11-25T22:54:51.204Z,5.90
2022-11-25T22:57:18.415Z,5.87
2022-11-25T22:59:45.579Z,5.82
2022-11-25T23:02:27.830Z,5.81
2022-11-25T23:04:56.377Z,5.82
2022-11-25T23:07:24.645Z,5.81
2022-11-25T23:09:52.173Z,5.66
2022-11-25T23:12:19.748Z,5.74
2022-11-25T23:14:46.684Z,5.62
2022-11-25T23:17:21.760Z,5.59
2022-11-25T23:19:50.020Z,5.63
2022-11-25T23:22:17.083Z,5.64
2022-11-25T23:24:46.124Z,5.89
2022-11-25T23:27:15.333Z,6.10
2022-11-25T23:29:43.322Z,6.17
2022-11-25T23:32:21.163Z,6.22
2022-11-25T23:34:50.685Z,6.23
2022-11-25T23:37:18.151Z,6.26
2022-11-25T23:39:51.778Z,6.29
2022-11-25T23:42:20.138Z,6.32
2022-11-25T23:44:47.228Z,6.33
2022-11-25T23:47:18.888Z,6.30
2022-11-25T23:49:49.975Z,6.35
2022-11-25T23:52:23.104Z,6.30
2022-11-25T23:54:51.684Z,6.31
2022-11-25T23:57:21.674Z,6.28
2022-11-25T23:59:50.236Z,6.22
